Terminal Aerodrome Forecast
Issued by NWS

Home | Current Version | Previous Version | Text Only | Print | Product List | Glossary On
Versions: 1 2 3 4 5 6 7 8 9 10 11 12 13 14 15 16 17 18 19 20 21 22 23 24 25 26
000
FTUS41 KGYX 272325
TAFPSM
TAF
KPSM 272325Z 2800/2824 VRB05KT P6SM FEW008 FEW100 BKN250
     FM280100 13004KT 3SM BR BKN004
     FM280300 13004KT 1/2SM FG OVC002
     FM281200 29004KT P6SM SCT100 SCT250=

USA.gov is the U.S. government's official web portal to all federal, state and local government web resources and services.